Pagrindinis puslapis
METAR-TAF:

METAR-TAF

Oro uostai :

Belo Horizontė, Minas Žeraisas, Brazilija

platuma: 19-54-33S, ilguma: 043-59-21W, Aukštis: 928 m

Dabartinis oras

Ataskaita buvo paskelbta 9 valandos ir 17 minutes, ne 20:00 UTC
Vėjas 6 kt iš Rytų/Šiaurės Rytų
Temperatūra 22°C
Drėgmė 41%
Slėgis 1021 hPa
Matomumas 10 km arba daugiau
nėra debesų žemiau 1500 m ir nėra kamuolinių lietaus debesų

METAR: SBPR 282000Z 06006KT CAVOK 22/08 Q1021

Laikas: 02:17 (05:17 UTC)


TAF: trūkstamas

Orai ataskaitas ir orų prognozės (METAR, TAF).

turimą stotys yra geltonos ir raudonos taškus žemėlapyje.

Perkelti pele per norėdami pamatyti stoties vardą.

Tada spustelėkite, norėdami matyti oro stebėjimo ir prognozės.

Norėdami pakeisti žemėlapį: spustelėkite ant žalios mygtukų su juodo kryžiaus žemyn,; žalią mygtuką su brūkšneliu, jei norite nutolinti; arba žalių rodyklių gretimoms žemėlapius.


METAR-TAF: